createdAt,value
2017-07-12T08:09:18.706Z,58.70
2017-07-12T08:11:46.253Z,38.40
2017-07-12T08:14:13.801Z,38.00
2017-07-12T08:16:41.343Z,39.00
2017-07-12T08:19:08.862Z,37.90
2017-07-12T08:21:37.166Z,37.20
2017-07-12T08:24:04.687Z,36.80
2017-07-12T08:26:32.216Z,34.30
2017-07-12T08:28:59.730Z,32.00
2017-07-12T08:31:27.275Z,31.10
2017-07-12T08:33:55.558Z,30.90
2017-07-12T08:36:23.113Z,30.80
2017-07-12T08:38:50.639Z,30.70
2017-07-12T08:41:18.156Z,31.90
2017-07-12T08:43:45.702Z,31.60
2017-07-12T08:46:13.237Z,32.70
2017-07-12T08:48:40.774Z,33.30
2017-07-12T08:51:08.295Z,33.20
2017-07-12T08:53:35.852Z,33.90
2017-07-12T08:56:03.381Z,34.50
2017-07-12T08:58:31.688Z,33.40
2017-07-12T09:00:59.216Z,33.40
2017-07-12T09:03:26.753Z,33.10
2017-07-12T09:05:54.279Z,33.50
2017-07-12T09:08:21.822Z,34.40
2017-07-12T09:10:49.339Z,36.10
2017-07-12T09:13:16.877Z,36.00
2017-07-12T09:15:44.391Z,34.80
2017-07-12T09:18:11.941Z,32.20
2017-07-12T09:20:39.475Z,32.60
2017-07-12T09:23:06.988Z,31.60
2017-07-12T09:35:25.607Z,35.00
2017-07-12T09:37:53.132Z,35.00
2017-07-12T09:40:21.434Z,31.20
2017-07-12T09:42:48.956Z,31.20
2017-07-12T09:45:17.266Z,32.80
2017-07-12T09:47:44.795Z,32.70
2017-07-12T09:50:13.109Z,36.00
2017-07-12T09:52:40.634Z,35.90
2017-07-12T09:55:08.958Z,36.10
2017-07-12T09:57:36.481Z,36.10
2017-07-12T10:00:04.011Z,35.10
2017-07-12T10:02:31.558Z,35.20
2017-07-12T10:04:59.089Z,35.10
2017-07-12T10:07:26.623Z,33.90
2017-07-12T10:09:54.146Z,34.60
2017-07-12T10:12:22.458Z,31.30
2017-07-12T10:14:49.981Z,31.20
2017-07-12T10:17:18.308Z,30.10
2017-07-12T10:19:45.818Z,30.00
2017-07-12T10:22:14.134Z,31.10
2017-07-12T10:24:41.654Z,31.10
2017-07-12T10:27:09.204Z,30.20
2017-07-12T10:29:36.730Z,31.00
2017-07-12T10:32:04.284Z,30.30
2017-07-12T10:34:31.817Z,31.20
2017-07-12T10:36:59.357Z,33.30
2017-07-12T10:39:27.695Z,33.70
2017-07-12T10:41:55.211Z,33.60
2017-07-12T10:44:23.004Z,32.80
2017-07-12T10:46:50.529Z,33.20
2017-07-12T10:49:18.070Z,33.00
2017-07-12T10:51:46.356Z,33.00
2017-07-12T10:54:13.905Z,33.00
2017-07-12T10:56:42.195Z,29.90
2017-07-12T10:59:10.498Z,28.30
2017-07-12T11:01:38.031Z,28.30
2017-07-12T11:04:05.594Z,27.50
2017-07-12T11:06:33.124Z,25.90
2017-07-12T11:09:00.653Z,26.10
2017-07-12T11:11:28.200Z,26.50
2017-07-12T11:13:55.713Z,26.90
2017-07-12T11:16:24.018Z,26.90
2017-07-12T11:18:51.533Z,26.80
2017-07-12T11:21:20.684Z,26.00
2017-07-12T11:23:51.413Z,25.90
2017-07-12T11:26:18.958Z,26.40
2017-07-12T11:28:46.479Z,24.70
2017-07-12T11:31:14.024Z,25.30
2017-07-12T11:33:41.560Z,25.30
2017-07-12T11:36:09.100Z,25.10
2017-07-12T11:38:36.638Z,25.30
2017-07-12T11:41:04.950Z,24.70
2017-07-12T11:43:32.457Z,24.60
2017-07-12T11:46:00.774Z,27.00
2017-07-12T11:48:28.300Z,26.70
2017-07-12T11:50:56.583Z,27.80
2017-07-12T11:53:24.894Z,26.90
2017-07-12T11:55:52.423Z,26.80
2017-07-12T11:58:20.739Z,27.00
2017-07-12T12:00:48.257Z,27.00
2017-07-12T12:03:16.561Z,26.60
2017-07-12T12:05:44.074Z,26.60
2017-07-12T12:08:11.611Z,25.80
2017-07-12T12:10:39.141Z,24.80
2017-07-12T12:13:06.697Z,26.30
2017-07-12T12:15:34.216Z,26.90
2017-07-12T12:18:02.525Z,27.30
2017-07-12T12:20:30.051Z,27.20
2017-07-12T12:22:58.475Z,25.50
2017-07-12T12:25:26.025Z,25.30
2017-07-12T12:27:53.546Z,24.10
2017-07-12T12:30:21.881Z,23.90
2017-07-12T12:32:49.393Z,23.90
2017-07-12T12:35:17.699Z,22.90
2017-07-12T12:37:45.216Z,22.80
2017-07-12T12:40:13.523Z,24.80
2017-07-12T12:42:41.049Z,24.40
2017-07-12T12:45:08.583Z,25.00
2017-07-12T12:47:36.125Z,26.30
2017-07-12T12:50:04.737Z,27.70
2017-07-12T12:52:32.262Z,31.20
2017-07-12T12:54:59.832Z,33.80
2017-07-12T12:57:27.352Z,34.50
2017-07-12T12:59:54.877Z,33.40
2017-07-12T13:02:22.417Z,33.90
2017-07-12T13:04:55.677Z,37.40
2017-07-12T13:07:23.225Z,37.90
2017-07-12T13:09:50.757Z,44.20
2017-07-12T13:12:19.057Z,41.60
2017-07-12T13:14:46.577Z,41.00
2017-07-12T13:17:14.130Z,40.70
2017-07-12T13:19:41.656Z,44.30
2017-07-12T13:22:09.218Z,47.20
2017-07-12T13:24:36.735Z,54.20
2017-07-12T13:27:05.025Z,62.10
2017-07-12T13:29:32.590Z,62.00
2017-07-12T13:32:00.116Z,63.00
2017-07-12T13:34:27.657Z,64.50
2017-07-12T13:36:55.175Z,60.70
2017-07-12T13:39:22.736Z,58.10
2017-07-12T13:41:50.262Z,60.50
2017-07-12T13:44:17.807Z,59.20
2017-07-12T13:46:45.384Z,58.50
2017-07-12T13:49:16.737Z,61.00
2017-07-12T13:51:45.076Z,57.80
2017-07-12T13:54:13.437Z,59.50
2017-07-12T13:56:40.959Z,58.90
2017-07-12T13:59:08.487Z,56.40
2017-07-12T14:01:36.053Z,54.00
2017-07-12T14:04:04.340Z,49.20
2017-07-12T14:06:31.878Z,49.20
2017-07-12T14:08:59.401Z,45.50
2017-07-12T14:11:26.931Z,43.70
2017-07-12T14:13:54.446Z,44.20
2017-07-12T14:16:22.085Z,45.70
2017-07-12T14:18:49.610Z,44.90
2017-07-12T14:21:17.125Z,44.00
2017-07-12T14:23:44.660Z,44.30
2017-07-12T14:26:12.196Z,42.70
2017-07-12T14:28:39.713Z,42.70
2017-07-12T14:31:07.237Z,41.10
2017-07-12T14:33:34.781Z,43.30
2017-07-12T14:36:02.289Z,42.20
2017-07-12T14:38:29.822Z,39.30
2017-07-12T14:40:57.333Z,38.40
2017-07-12T14:43:24.872Z,38.10
2017-07-12T14:45:53.191Z,36.80
2017-07-12T14:48:20.721Z,37.50
2017-07-12T14:50:49.005Z,35.90
2017-07-12T14:53:16.542Z,35.80
2017-07-12T14:55:44.146Z,34.60
2017-07-12T14:58:11.706Z,35.60
2017-07-12T15:00:39.291Z,36.80
2017-07-12T15:03:06.772Z,38.40
2017-07-12T15:05:35.081Z,41.20
2017-07-12T15:08:02.618Z,40.50
2017-07-12T15:10:30.922Z,46.40
2017-07-12T15:12:59.303Z,46.50
2017-07-12T15:15:26.834Z,51.40
2017-07-12T15:17:55.114Z,60.30
2017-07-12T15:20:23.413Z,59.10
2017-07-12T15:22:50.928Z,58.80
2017-07-12T15:25:18.466Z,64.80
2017-07-12T15:27:45.981Z,68.20
2017-07-12T15:30:13.517Z,66.30
2017-07-12T15:32:41.037Z,60.10
2017-07-12T15:35:08.589Z,59.00
2017-07-12T15:37:36.117Z,62.10
2017-07-12T15:40:03.638Z,57.80
2017-07-12T15:42:31.163Z,57.00
2017-07-12T15:44:58.681Z,55.50
2017-07-12T15:47:26.228Z,55.80
2017-07-12T15:49:54.513Z,55.10
2017-07-12T15:52:22.818Z,54.80
2017-07-12T15:54:50.335Z,54.80
2017-07-12T15:57:18.649Z,53.10
2017-07-12T15:59:46.169Z,52.80
2017-07-12T16:02:14.469Z,49.90
2017-07-12T16:04:41.981Z,49.90
2017-07-12T16:07:09.521Z,50.40
2017-07-12T16:09:37.054Z,49.10
2017-07-12T16:12:04.661Z,48.70
2017-07-12T16:14:32.190Z,48.90
2017-07-12T16:16:59.713Z,47.20
2017-07-12T16:19:28.017Z,45.00
2017-07-12T16:21:55.543Z,45.00
2017-07-12T16:24:23.840Z,47.20
2017-07-12T16:26:51.365Z,47.20
2017-07-12T16:29:20.630Z,47.50
2017-07-12T16:31:48.146Z,47.20
2017-07-12T16:34:15.684Z,47.70
2017-07-12T16:36:43.971Z,48.30
2017-07-12T16:39:12.267Z,46.30
2017-07-12T16:41:39.790Z,46.30
2017-07-12T16:44:07.365Z,46.40
2017-07-12T16:46:35.653Z,46.20
2017-07-12T16:49:03.172Z,46.20
2017-07-12T16:51:30.715Z,47.60
2017-07-12T16:53:58.231Z,48.00
2017-07-12T16:56:25.769Z,49.20
2017-07-12T16:58:53.293Z,48.20
2017-07-12T17:01:20.836Z,47.90
2017-07-12T17:03:48.357Z,47.60
2017-07-12T17:06:16.661Z,47.30
2017-07-12T17:08:44.173Z,47.20
2017-07-12T17:11:11.706Z,47.70
2017-07-12T17:13:39.910Z,48.10
2017-07-12T17:16:08.205Z,47.40
2017-07-12T17:18:35.721Z,47.20
2017-07-12T17:21:03.273Z,46.30
2017-07-12T17:23:30.794Z,46.30
2017-07-12T17:25:59.065Z,46.10
2017-07-12T17:28:26.612Z,46.20
2017-07-12T17:30:54.138Z,44.00
2017-07-12T17:33:21.686Z,45.10
2017-07-12T17:35:49.236Z,45.90
2017-07-12T17:38:17.569Z,47.70
2017-07-12T17:40:45.105Z,48.20
2017-07-12T17:43:12.645Z,49.40
2017-07-12T17:45:40.168Z,50.10
2017-07-12T17:48:07.698Z,49.50
2017-07-12T17:50:35.988Z,49.60
2017-07-12T17:53:03.885Z,49.60
2017-07-12T17:55:32.025Z,49.60
2017-07-12T17:57:59.549Z,48.50
2017-07-12T18:00:27.101Z,49.00
2017-07-12T18:02:54.629Z,48.70
2017-07-12T18:05:22.170Z,48.60
2017-07-12T18:07:49.692Z,49.00
2017-07-12T18:10:17.996Z,49.50
2017-07-12T18:12:45.522Z,49.50
2017-07-12T18:15:13.079Z,48.60
2017-07-12T18:17:40.614Z,49.20
2017-07-12T18:20:08.169Z,49.70
2017-07-12T18:22:35.705Z,50.20
2017-07-12T18:25:03.240Z,50.10
2017-07-12T18:27:30.769Z,50.50
2017-07-12T18:29:58.313Z,50.90
2017-07-12T18:32:25.840Z,50.60
2017-07-12T18:34:53.374Z,50.50
2017-07-12T18:37:20.920Z,50.30
2017-07-12T18:39:49.205Z,49.30
2017-07-12T18:42:17.507Z,50.40
2017-07-12T18:44:45.029Z,50.40
2017-07-12T18:47:13.333Z,50.90
2017-07-12T18:49:40.852Z,50.80
2017-07-12T18:52:08.395Z,51.20
2017-07-12T18:54:35.917Z,51.70
2017-07-12T18:57:03.460Z,52.10
2017-07-12T18:59:31.073Z,52.50
2017-07-12T19:01:58.624Z,52.90
2017-07-12T19:04:26.137Z,52.70
2017-07-12T19:06:53.692Z,52.70
2017-07-12T19:09:21.217Z,53.10
2017-07-12T19:11:48.741Z,53.30
2017-07-12T19:14:16.275Z,53.20
2017-07-12T19:16:43.813Z,53.30
2017-07-12T19:19:11.386Z,53.50
2017-07-12T19:21:38.917Z,53.50
2017-07-12T19:24:06.457Z,53.20
2017-07-12T19:26:34.000Z,53.70
2017-07-12T19:29:01.537Z,54.30
2017-07-12T19:31:29.067Z,54.90
2017-07-12T19:33:57.401Z,57.30
2017-07-12T19:36:24.961Z,57.30
2017-07-12T19:38:52.501Z,58.80
2017-07-12T19:41:20.044Z,60.00
2017-07-12T19:43:47.566Z,61.60
2017-07-12T19:46:15.113Z,62.00
2017-07-12T19:48:42.644Z,62.90
2017-07-12T19:51:10.181Z,62.90
2017-07-12T19:53:37.706Z,62.60
2017-07-12T19:56:06.011Z,54.40
2017-07-12T19:58:33.542Z,53.60
2017-07-12T20:01:01.853Z,54.30
2017-07-12T20:03:29.374Z,54.30
2017-07-12T20:05:56.929Z,55.10
2017-07-12T20:08:24.443Z,55.70
2017-07-12T20:10:51.969Z,56.10
2017-07-12T20:13:20.272Z,56.00
2017-07-12T20:15:47.795Z,56.00
2017-07-12T20:18:16.122Z,55.70
2017-07-12T20:20:43.641Z,55.70
2017-07-12T20:23:12.545Z,55.50
2017-07-12T20:25:40.063Z,55.50
2017-07-12T20:28:07.597Z,55.60
2017-07-12T20:30:35.125Z,56.10
2017-07-12T20:33:02.674Z,56.00
2017-07-12T20:35:30.213Z,56.30
2017-07-12T20:37:58.527Z,57.20
2017-07-12T20:40:26.063Z,57.10
2017-07-12T20:42:53.586Z,57.80
2017-07-12T20:45:21.128Z,58.10
2017-07-12T20:47:48.719Z,58.60
2017-07-12T20:50:16.221Z,58.30
2017-07-12T20:52:43.741Z,58.70
2017-07-12T20:55:12.050Z,59.40
2017-07-12T20:57:39.575Z,59.40
2017-07-12T21:00:07.888Z,59.90
2017-07-12T21:02:35.418Z,59.90
2017-07-12T21:05:03.746Z,61.10
2017-07-12T21:07:31.290Z,60.90
2017-07-12T21:09:58.813Z,61.60
2017-07-12T21:12:26.372Z,62.70
2017-07-12T21:14:54.666Z,64.40
2017-07-12T21:17:22.227Z,64.30
2017-07-12T21:19:49.759Z,65.00
2017-07-12T21:22:17.317Z,65.40
2017-07-12T21:24:45.606Z,65.30
2017-07-12T21:27:13.167Z,65.90
2017-07-12T21:29:40.690Z,65.10
2017-07-12T21:32:08.209Z,65.20
2017-07-12T21:34:36.367Z,66.10
2017-07-12T21:37:03.900Z,66.30
2017-07-12T21:39:31.445Z,67.00
2017-07-12T21:41:58.969Z,67.30
2017-07-12T21:44:26.517Z,67.40
2017-07-12T21:46:54.044Z,67.80
2017-07-12T21:49:22.342Z,68.30
2017-07-12T21:51:49.868Z,68.20
2017-07-12T21:54:35.869Z,69.40
2017-07-12T21:57:21.089Z,69.40
2017-07-12T22:00:06.333Z,70.10
2017-07-12T22:02:51.695Z,70.40
2017-07-12T22:05:37.774Z,71.30
2017-07-12T22:08:22.804Z,71.20
2017-07-12T22:11:07.994Z,71.70
2017-07-12T22:13:53.184Z,71.70
2017-07-12T22:16:38.402Z,72.10
2017-07-12T22:19:23.488Z,72.40
2017-07-12T22:22:08.607Z,72.60
2017-07-12T22:24:54.401Z,74.00
2017-07-12T22:27:40.270Z,75.10
2017-07-12T22:30:25.362Z,75.10
2017-07-12T22:33:10.527Z,74.90
2017-07-12T22:35:56.655Z,74.80
2017-07-12T22:38:29.983Z,74.80
2017-07-12T22:41:03.328Z,74.80
2017-07-12T22:43:31.202Z,74.30
2017-07-12T22:45:59.202Z,74.40
2017-07-12T22:48:26.740Z,75.30
2017-07-12T22:50:54.258Z,75.60
2017-07-12T22:53:21.813Z,76.30
2017-07-12T22:55:49.339Z,76.20
2017-07-12T22:58:16.852Z,76.70
2017-07-12T23:00:44.397Z,75.40
2017-07-12T23:03:12.689Z,73.00
2017-07-12T23:05:40.242Z,72.90
2017-07-12T23:08:07.778Z,72.80
2017-07-12T23:10:35.319Z,72.20
2017-07-12T23:13:02.921Z,71.10
2017-07-12T23:15:31.228Z,71.60
2017-07-12T23:17:58.752Z,71.60
2017-07-12T23:20:27.058Z,70.50
2017-07-12T23:22:54.585Z,70.50
2017-07-12T23:25:22.905Z,71.20
2017-07-12T23:27:50.431Z,71.00
2017-07-12T23:30:18.192Z,70.40
2017-07-12T23:32:46.484Z,69.20
2017-07-12T23:35:14.009Z,69.10
2017-07-12T23:37:42.325Z,67.40
2017-07-12T23:40:09.847Z,67.40
2017-07-12T23:42:38.161Z,67.00
2017-07-12T23:45:05.686Z,67.30
2017-07-12T23:47:33.998Z,67.00
2017-07-12T23:50:01.520Z,66.90
2017-07-12T23:52:29.832Z,67.00
2017-07-12T23:54:57.421Z,66.90
2017-07-12T23:57:24.938Z,66.80
2017-07-12T23:59:52.457Z,66.60
